Hlavní strana
METAR-TAF:

METAR-TAF

Letiště :

Kuopio, Finsko

zeměpisná šířka: 63-01N, zeměpisná délka: 027-48E, výška: 98 m

Aktuální stav počasí

Zpráva byla vytvořena před 14 minutami, v 00:20 UTC
Západní vítr 5 kt
Teplota 1°C
Vlhkost vzduchu 59%
Tlak 1008 hPa
Viditelnost 10 km a více
Žádná oblačnost pod 1500 m, nevyskytují se cumulonimby.

METAR: EFKU 090020Z AUTO 28005KT CAVOK 01/M06 Q1008

Čas: 03:34 (00:34 UTC)

Předpověď počasí

Zpráva byla vytvořena před 1 hodinou a 10 minutami, v 23:24 UTC
Předpověď platná od 09 v 00 UTC do 09 v 24 UTC
Západoseverozápadní vítr 6 kt
Viditelnost 10 km a více
Žádná oblačnost pod 1500 m, nevyskytují se cumulonimby.
Dočasný
od 09 v 09 UTC do 09 v 15 UTC
Skoro jasno ve výšce 4500 ft, Vertikální cumulus.

TAF: EFKU 082324Z 0900/0924 30006KT CAVOK TEMPO 0909/0915 FEW045TCU

Stav a předpovědi počasí z více než 4 000 letišť (zprávy METAR a TAF).

Červené a žluté tečky na mapě představují dostupné meteorologické stanice.

Když kurzor umístíte na tečku, zobrazí se název stanice.

Pak kliknutím zobrazíte stav a předpověď počasí.

Chcete-li změnit mapu, kliknutím na zelené tlačítko se znaménkem +mapu přiblížíte, kliknutím na zelené tlačítko se znaménkem – mapu oddálíte a kliknutím na zelené šipky přejdete na sousední mapy.


METAR-TAF: